sensor_id;sensor_type;location;lat;lon;timestamp;P1;durP1;ratioP1;P2;durP2;ratioP2
82265;SDS011;71866;53.340;-6.308;2023-11-19T00:01:56;11.13;;;3.17;;
82265;SDS011;71866;53.340;-6.308;2023-11-19T00:04:24;9.07;;;1.50;;
82265;SDS011;71866;53.340;-6.308;2023-11-19T00:06:51;11.40;;;2.25;;
82265;SDS011;71866;53.340;-6.308;2023-11-19T00:09:18;10.40;;;1.90;;
82265;SDS011;71866;53.340;-6.308;2023-11-19T00:11:46;8.65;;;1.63;;
82265;SDS011;71866;53.340;-6.308;2023-11-19T00:14:17;9.52;;;1.70;;
82265;SDS011;71866;53.340;-6.308;2023-11-19T00:16:47;11.85;;;1.83;;
82265;SDS011;71866;53.340;-6.308;2023-11-19T00:19:14;10.20;;;2.42;;
82265;SDS011;71866;53.340;-6.308;2023-11-19T00:21:45;12.55;;;2.13;;
82265;SDS011;71866;53.340;-6.308;2023-11-19T00:24:12;14.75;;;2.47;;
82265;SDS011;71866;53.340;-6.308;2023-11-19T00:26:42;11.05;;;1.80;;
82265;SDS011;71866;53.340;-6.308;2023-11-19T00:29:11;8.40;;;1.08;;
82265;SDS011;71866;53.340;-6.308;2023-11-19T00:31:39;8.18;;;1.20;;
82265;SDS011;71866;53.340;-6.308;2023-11-19T00:34:09;9.55;;;1.42;;
82265;SDS011;71866;53.340;-6.308;2023-11-19T00:36:38;8.10;;;1.42;;
82265;SDS011;71866;53.340;-6.308;2023-11-19T00:39:06;8.85;;;1.35;;
82265;SDS011;71866;53.340;-6.308;2023-11-19T00:41:34;11.93;;;1.98;;
82265;SDS011;71866;53.340;-6.308;2023-11-19T00:44:01;8.73;;;1.40;;
82265;SDS011;71866;53.340;-6.308;2023-11-19T00:46:29;10.65;;;1.63;;
82265;SDS011;71866;53.340;-6.308;2023-11-19T00:48:56;10.55;;;1.48;;
82265;SDS011;71866;53.340;-6.308;2023-11-19T00:51:23;12.63;;;1.65;;
82265;SDS011;71866;53.340;-6.308;2023-11-19T00:53:50;9.43;;;1.73;;
82265;SDS011;71866;53.340;-6.308;2023-11-19T00:56:17;7.63;;;1.40;;
82265;SDS011;71866;53.340;-6.308;2023-11-19T00:58:45;13.38;;;1.70;;
82265;SDS011;71866;53.340;-6.308;2023-11-19T01:01:12;6.63;;;1.30;;
82265;SDS011;71866;53.340;-6.308;2023-11-19T01:03:38;10.45;;;1.42;;
82265;SDS011;71866;53.340;-6.308;2023-11-19T01:06:06;9.98;;;1.33;;
82265;SDS011;71866;53.340;-6.308;2023-11-19T01:08:33;8.82;;;1.50;;
82265;SDS011;71866;53.340;-6.308;2023-11-19T01:11:01;11.23;;;1.60;;
82265;SDS011;71866;53.340;-6.308;2023-11-19T01:13:28;7.85;;;1.40;;
82265;SDS011;71866;53.340;-6.308;2023-11-19T01:15:55;7.53;;;1.10;;
82265;SDS011;71866;53.340;-6.308;2023-11-19T01:18:22;8.02;;;1.17;;
82265;SDS011;71866;53.340;-6.308;2023-11-19T01:20:50;6.90;;;1.10;;
82265;SDS011;71866;53.340;-6.308;2023-11-19T01:23:16;7.90;;;1.35;;
82265;SDS011;71866;53.340;-6.308;2023-11-19T01:25:44;7.53;;;1.17;;
82265;SDS011;71866;53.340;-6.308;2023-11-19T01:28:11;9.73;;;1.60;;
82265;SDS011;71866;53.340;-6.308;2023-11-19T01:30:37;8.65;;;1.38;;
82265;SDS011;71866;53.340;-6.308;2023-11-19T01:33:05;6.93;;;1.17;;
82265;SDS011;71866;53.340;-6.308;2023-11-19T01:35:31;8.75;;;1.30;;
82265;SDS011;71866;53.340;-6.308;2023-11-19T01:37:59;9.43;;;1.90;;
82265;SDS011;71866;53.340;-6.308;2023-11-19T01:40:26;11.10;;;1.30;;
82265;SDS011;71866;53.340;-6.308;2023-11-19T01:42:52;9.65;;;1.70;;
82265;SDS011;71866;53.340;-6.308;2023-11-19T01:45:27;6.68;;;1.17;;
82265;SDS011;71866;53.340;-6.308;2023-11-19T01:47:57;7.85;;;0.90;;
82265;SDS011;71866;53.340;-6.308;2023-11-19T01:50:25;8.88;;;1.17;;
82265;SDS011;71866;53.340;-6.308;2023-11-19T01:52:52;9.52;;;1.08;;
82265;SDS011;71866;53.340;-6.308;2023-11-19T01:55:21;12.10;;;2.13;;
82265;SDS011;71866;53.340;-6.308;2023-11-19T01:57:48;7.07;;;0.88;;
82265;SDS011;71866;53.340;-6.308;2023-11-19T02:00:17;11.30;;;1.35;;
82265;SDS011;71866;53.340;-6.308;2023-11-19T02:02:46;5.95;;;1.00;;
82265;SDS011;71866;53.340;-6.308;2023-11-19T02:05:15;6.05;;;0.90;;
82265;SDS011;71866;53.340;-6.308;2023-11-19T02:07:41;6.22;;;1.13;;
82265;SDS011;71866;53.340;-6.308;2023-11-19T02:10:10;7.78;;;1.38;;
82265;SDS011;71866;53.340;-6.308;2023-11-19T02:12:36;10.88;;;1.40;;
82265;SDS011;71866;53.340;-6.308;2023-11-19T02:15:03;11.60;;;1.10;;
82265;SDS011;71866;53.340;-6.308;2023-11-19T02:17:31;5.32;;;1.00;;
82265;SDS011;71866;53.340;-6.308;2023-11-19T02:19:58;6.72;;;1.15;;
82265;SDS011;71866;53.340;-6.308;2023-11-19T02:22:24;8.93;;;1.65;;
82265;SDS011;71866;53.340;-6.308;2023-11-19T02:24:54;8.23;;;1.20;;
82265;SDS011;71866;53.340;-6.308;2023-11-19T02:27:47;5.25;;;0.88;;
82265;SDS011;71866;53.340;-6.308;2023-11-19T02:30:14;6.30;;;1.10;;
82265;SDS011;71866;53.340;-6.308;2023-11-19T02:32:42;6.28;;;0.80;;
82265;SDS011;71866;53.340;-6.308;2023-11-19T02:35:09;3.55;;;1.10;;
82265;SDS011;71866;53.340;-6.308;2023-11-19T02:37:35;7.88;;;1.17;;
82265;SDS011;71866;53.340;-6.308;2023-11-19T02:40:03;9.30;;;1.40;;
82265;SDS011;71866;53.340;-6.308;2023-11-19T02:42:31;5.70;;;1.25;;
82265;SDS011;71866;53.340;-6.308;2023-11-19T02:44:58;6.30;;;1.02;;
82265;SDS011;71866;53.340;-6.308;2023-11-19T02:47:25;11.70;;;1.60;;
82265;SDS011;71866;53.340;-6.308;2023-11-19T02:49:53;7.88;;;1.10;;
82265;SDS011;71866;53.340;-6.308;2023-11-19T02:52:19;6.53;;;1.38;;
82265;SDS011;71866;53.340;-6.308;2023-11-19T02:54:46;6.63;;;1.13;;
82265;SDS011;71866;53.340;-6.308;2023-11-19T02:57:13;4.55;;;0.88;;
82265;SDS011;71866;53.340;-6.308;2023-11-19T02:59:43;5.82;;;1.00;;
82265;SDS011;71866;53.340;-6.308;2023-11-19T03:02:11;8.73;;;1.30;;
82265;SDS011;71866;53.340;-6.308;2023-11-19T03:04:38;6.82;;;1.13;;
82265;SDS011;71866;53.340;-6.308;2023-11-19T03:07:05;5.78;;;1.27;;
82265;SDS011;71866;53.340;-6.308;2023-11-19T03:09:33;7.75;;;1.13;;
82265;SDS011;71866;53.340;-6.308;2023-11-19T03:12:01;11.73;;;1.05;;
82265;SDS011;71866;53.340;-6.308;2023-11-19T03:14:28;4.63;;;1.10;;
82265;SDS011;71866;53.340;-6.308;2023-11-19T03:16:55;4.28;;;0.77;;
82265;SDS011;71866;53.340;-6.308;2023-11-19T03:19:22;5.38;;;1.02;;
82265;SDS011;71866;53.340;-6.308;2023-11-19T03:24:18;5.30;;;1.08;;
82265;SDS011;71866;53.340;-6.308;2023-11-19T03:26:48;5.43;;;0.80;;
82265;SDS011;71866;53.340;-6.308;2023-11-19T03:29:15;6.45;;;1.30;;
82265;SDS011;71866;53.340;-6.308;2023-11-19T03:31:44;11.30;;;1.38;;
82265;SDS011;71866;53.340;-6.308;2023-11-19T03:34:11;4.07;;;1.10;;
82265;SDS011;71866;53.340;-6.308;2023-11-19T03:36:37;5.53;;;1.10;;
82265;SDS011;71866;53.340;-6.308;2023-11-19T03:39:05;10.30;;;1.35;;
82265;SDS011;71866;53.340;-6.308;2023-11-19T03:41:32;4.72;;;0.90;;
82265;SDS011;71866;53.340;-6.308;2023-11-19T03:44:02;7.45;;;0.88;;
82265;SDS011;71866;53.340;-6.308;2023-11-19T03:46:29;10.65;;;1.05;;
82265;SDS011;71866;53.340;-6.308;2023-11-19T03:48:55;12.30;;;1.77;;
82265;SDS011;71866;53.340;-6.308;2023-11-19T03:51:23;4.55;;;0.73;;
82265;SDS011;71866;53.340;-6.308;2023-11-19T03:53:50;5.22;;;0.70;;
82265;SDS011;71866;53.340;-6.308;2023-11-19T03:56:16;10.38;;;1.17;;
82265;SDS011;71866;53.340;-6.308;2023-11-19T03:58:45;5.28;;;0.75;;
82265;SDS011;71866;53.340;-6.308;2023-11-19T04:01:12;7.63;;;0.85;;
82265;SDS011;71866;53.340;-6.308;2023-11-19T04:03:38;7.47;;;0.80;;
82265;SDS011;71866;53.340;-6.308;2023-11-19T04:06:16;5.10;;;0.77;;
82265;SDS011;71866;53.340;-6.308;2023-11-19T04:08:43;6.72;;;0.95;;
82265;SDS011;71866;53.340;-6.308;2023-11-19T04:11:11;10.20;;;1.40;;
82265;SDS011;71866;53.340;-6.308;2023-11-19T04:13:37;4.75;;;0.88;;
82265;SDS011;71866;53.340;-6.308;2023-11-19T04:16:05;3.13;;;0.80;;
82265;SDS011;71866;53.340;-6.308;2023-11-19T04:18:32;6.57;;;0.80;;
82265;SDS011;71866;53.340;-6.308;2023-11-19T04:20:59;4.95;;;0.70;;
82265;SDS011;71866;53.340;-6.308;2023-11-19T04:23:26;2.35;;;0.60;;
82265;SDS011;71866;53.340;-6.308;2023-11-19T04:25:54;5.60;;;1.20;;
82265;SDS011;71866;53.340;-6.308;2023-11-19T04:28:20;6.93;;;0.98;;
82265;SDS011;71866;53.340;-6.308;2023-11-19T04:30:47;13.38;;;1.60;;
82265;SDS011;71866;53.340;-6.308;2023-11-19T04:33:15;5.47;;;0.98;;
82265;SDS011;71866;53.340;-6.308;2023-11-19T04:35:41;4.07;;;0.55;;
82265;SDS011;71866;53.340;-6.308;2023-11-19T04:38:09;4.75;;;0.90;;
82265;SDS011;71866;53.340;-6.308;2023-11-19T04:40:37;7.00;;;0.90;;
82265;SDS011;71866;53.340;-6.308;2023-11-19T04:43:04;7.00;;;0.88;;
82265;SDS011;71866;53.340;-6.308;2023-11-19T04:45:31;3.72;;;0.85;;
82265;SDS011;71866;53.340;-6.308;2023-11-19T04:47:59;2.45;;;0.77;;
82265;SDS011;71866;53.340;-6.308;2023-11-19T04:50:25;2.08;;;0.63;;
82265;SDS011;71866;53.340;-6.308;2023-11-19T04:52:52;7.85;;;0.70;;
82265;SDS011;71866;53.340;-6.308;2023-11-19T04:55:21;6.05;;;0.90;;
82265;SDS011;71866;53.340;-6.308;2023-11-19T04:57:47;8.45;;;0.80;;
82265;SDS011;71866;53.340;-6.308;2023-11-19T05:00:15;7.43;;;0.80;;
82265;SDS011;71866;53.340;-6.308;2023-11-19T05:02:43;6.60;;;0.85;;
82265;SDS011;71866;53.340;-6.308;2023-11-19T05:05:10;4.13;;;0.50;;
82265;SDS011;71866;53.340;-6.308;2023-11-19T05:07:37;5.22;;;0.93;;
82265;SDS011;71866;53.340;-6.308;2023-11-19T05:10:05;5.97;;;0.68;;
82265;SDS011;71866;53.340;-6.308;2023-11-19T05:12:33;4.68;;;0.88;;
82265;SDS011;71866;53.340;-6.308;2023-11-19T05:15:00;8.77;;;0.90;;
82265;SDS011;71866;53.340;-6.308;2023-11-19T05:17:26;4.18;;;0.60;;
82265;SDS011;71866;53.340;-6.308;2023-11-19T05:19:54;4.78;;;0.70;;
82265;SDS011;71866;53.340;-6.308;2023-11-19T05:22:21;6.70;;;0.80;;
82265;SDS011;71866;53.340;-6.308;2023-11-19T05:24:48;2.90;;;0.73;;
82265;SDS011;71866;53.340;-6.308;2023-11-19T05:27:15;2.80;;;0.43;;
82265;SDS011;71866;53.340;-6.308;2023-11-19T05:29:43;3.95;;;0.47;;
82265;SDS011;71866;53.340;-6.308;2023-11-19T05:32:10;5.05;;;0.60;;
82265;SDS011;71866;53.340;-6.308;2023-11-19T05:34:37;7.00;;;0.77;;
82265;SDS011;71866;53.340;-6.308;2023-11-19T05:37:17;4.55;;;0.32;;
82265;SDS011;71866;53.340;-6.308;2023-11-19T05:39:46;1.83;;;0.50;;
82265;SDS011;71866;53.340;-6.308;2023-11-19T05:42:13;7.32;;;1.25;;
82265;SDS011;71866;53.340;-6.308;2023-11-19T05:44:40;4.40;;;0.98;;
82265;SDS011;71866;53.340;-6.308;2023-11-19T05:47:07;2.80;;;0.60;;
82265;SDS011;71866;53.340;-6.308;2023-11-19T05:49:35;4.93;;;0.70;;
82265;SDS011;71866;53.340;-6.308;2023-11-19T05:52:02;4.22;;;0.60;;
82265;SDS011;71866;53.340;-6.308;2023-11-19T05:54:30;3.90;;;0.75;;
82265;SDS011;71866;53.340;-6.308;2023-11-19T05:56:57;4.15;;;1.17;;
82265;SDS011;71866;53.340;-6.308;2023-11-19T05:59:24;3.67;;;0.65;;
82265;SDS011;71866;53.340;-6.308;2023-11-19T06:01:51;3.30;;;0.40;;
82265;SDS011;71866;53.340;-6.308;2023-11-19T06:04:18;4.00;;;0.60;;
82265;SDS011;71866;53.340;-6.308;2023-11-19T06:06:44;1.77;;;0.50;;
82265;SDS011;71866;53.340;-6.308;2023-11-19T06:09:12;3.03;;;0.90;;
82265;SDS011;71866;53.340;-6.308;2023-11-19T06:11:39;3.08;;;0.50;;
82265;SDS011;71866;53.340;-6.308;2023-11-19T06:14:07;3.80;;;0.55;;
82265;SDS011;71866;53.340;-6.308;2023-11-19T06:16:34;4.60;;;0.80;;
82265;SDS011;71866;53.340;-6.308;2023-11-19T06:19:00;2.65;;;0.52;;
82265;SDS011;71866;53.340;-6.308;2023-11-19T06:21:28;3.67;;;0.50;;
82265;SDS011;71866;53.340;-6.308;2023-11-19T06:23:55;3.92;;;0.63;;
82265;SDS011;71866;53.340;-6.308;2023-11-19T06:26:21;3.90;;;0.50;;
82265;SDS011;71866;53.340;-6.308;2023-11-19T06:28:49;2.58;;;0.60;;
82265;SDS011;71866;53.340;-6.308;2023-11-19T06:31:17;2.75;;;0.63;;
82265;SDS011;71866;53.340;-6.308;2023-11-19T06:33:44;3.17;;;0.73;;
82265;SDS011;71866;53.340;-6.308;2023-11-19T06:36:15;1.67;;;0.30;;
82265;SDS011;71866;53.340;-6.308;2023-11-19T06:38:42;2.67;;;0.65;;
82265;SDS011;71866;53.340;-6.308;2023-11-19T06:41:10;3.55;;;0.50;;
82265;SDS011;71866;53.340;-6.308;2023-11-19T06:43:37;2.72;;;0.30;;
82265;SDS011;71866;53.340;-6.308;2023-11-19T06:46:15;4.28;;;0.63;;
82265;SDS011;71866;53.340;-6.308;2023-11-19T06:48:42;5.07;;;0.40;;
82265;SDS011;71866;53.340;-6.308;2023-11-19T06:51:10;3.95;;;0.73;;
82265;SDS011;71866;53.340;-6.308;2023-11-19T06:53:37;2.75;;;0.47;;
82265;SDS011;71866;53.340;-6.308;2023-11-19T06:56:04;5.50;;;0.60;;
82265;SDS011;71866;53.340;-6.308;2023-11-19T06:58:32;3.63;;;0.50;;
82265;SDS011;71866;53.340;-6.308;2023-11-19T07:01:02;3.15;;;0.50;;
82265;SDS011;71866;53.340;-6.308;2023-11-19T07:03:30;4.97;;;1.00;;
82265;SDS011;71866;53.340;-6.308;2023-11-19T07:05:56;5.07;;;1.10;;
82265;SDS011;71866;53.340;-6.308;2023-11-19T07:08:24;4.78;;;0.63;;
82265;SDS011;71866;53.340;-6.308;2023-11-19T07:10:51;3.25;;;0.50;;
82265;SDS011;71866;53.340;-6.308;2023-11-19T07:13:18;5.47;;;0.80;;
82265;SDS011;71866;53.340;-6.308;2023-11-19T07:15:45;5.15;;;0.73;;
82265;SDS011;71866;53.340;-6.308;2023-11-19T07:18:13;7.00;;;0.88;;
82265;SDS011;71866;53.340;-6.308;2023-11-19T07:20:40;4.03;;;0.80;;
82265;SDS011;71866;53.340;-6.308;2023-11-19T07:23:07;3.00;;;0.73;;
82265;SDS011;71866;53.340;-6.308;2023-11-19T07:25:34;5.93;;;0.90;;
82265;SDS011;71866;53.340;-6.308;2023-11-19T07:28:02;4.15;;;0.60;;
82265;SDS011;71866;53.340;-6.308;2023-11-19T07:30:29;3.45;;;0.95;;
82265;SDS011;71866;53.340;-6.308;2023-11-19T07:32:55;1.83;;;0.43;;
82265;SDS011;71866;53.340;-6.308;2023-11-19T07:35:23;1.35;;;0.52;;
82265;SDS011;71866;53.340;-6.308;2023-11-19T07:37:51;4.90;;;0.73;;
82265;SDS011;71866;53.340;-6.308;2023-11-19T07:40:19;5.45;;;0.40;;
82265;SDS011;71866;53.340;-6.308;2023-11-19T07:42:46;2.33;;;0.50;;
82265;SDS011;71866;53.340;-6.308;2023-11-19T07:45:13;2.47;;;0.70;;
82265;SDS011;71866;53.340;-6.308;2023-11-19T07:47:40;2.35;;;0.40;;
82265;SDS011;71866;53.340;-6.308;2023-11-19T07:50:07;5.05;;;0.90;;
82265;SDS011;71866;53.340;-6.308;2023-11-19T07:52:35;2.50;;;0.60;;
82265;SDS011;71866;53.340;-6.308;2023-11-19T07:55:01;3.40;;;0.38;;
82265;SDS011;71866;53.340;-6.308;2023-11-19T07:57:30;2.75;;;0.40;;
82265;SDS011;71866;53.340;-6.308;2023-11-19T07:59:57;1.35;;;0.32;;
82265;SDS011;71866;53.340;-6.308;2023-11-19T08:02:25;4.70;;;0.60;;
82265;SDS011;71866;53.340;-6.308;2023-11-19T08:04:51;2.33;;;0.43;;
82265;SDS011;71866;53.340;-6.308;2023-11-19T08:07:18;2.55;;;0.35;;
82265;SDS011;71866;53.340;-6.308;2023-11-19T08:09:46;0.88;;;0.20;;
82265;SDS011;71866;53.340;-6.308;2023-11-19T08:12:13;0.98;;;0.20;;
82265;SDS011;71866;53.340;-6.308;2023-11-19T08:14:40;1.38;;;0.20;;
82265;SDS011;71866;53.340;-6.308;2023-11-19T08:17:07;0.98;;;0.40;;
82265;SDS011;71866;53.340;-6.308;2023-11-19T08:19:35;1.25;;;0.30;;
82265;SDS011;71866;53.340;-6.308;2023-11-19T08:22:01;3.65;;;0.52;;
82265;SDS011;71866;53.340;-6.308;2023-11-19T08:24:29;1.63;;;0.40;;
82265;SDS011;71866;53.340;-6.308;2023-11-19T08:26:56;0.52;;;0.10;;
82265;SDS011;71866;53.340;-6.308;2023-11-19T08:29:26;0.90;;;0.17;;
82265;SDS011;71866;53.340;-6.308;2023-11-19T08:31:53;0.73;;;0.20;;
82265;SDS011;71866;53.340;-6.308;2023-11-19T08:34:19;0.93;;;0.28;;
82265;SDS011;71866;53.340;-6.308;2023-11-19T08:36:50;1.35;;;0.25;;
82265;SDS011;71866;53.340;-6.308;2023-11-19T08:39:17;1.38;;;0.25;;
82265;SDS011;71866;53.340;-6.308;2023-11-19T08:41:44;0.38;;;0.17;;
82265;SDS011;71866;53.340;-6.308;2023-11-19T08:44:11;0.80;;;0.13;;
82265;SDS011;71866;53.340;-6.308;2023-11-19T08:46:37;0.70;;;0.10;;
82265;SDS011;71866;53.340;-6.308;2023-11-19T08:49:05;0.32;;;0.20;;
82265;SDS011;71866;53.340;-6.308;2023-11-19T08:51:32;1.08;;;0.55;;
82265;SDS011;71866;53.340;-6.308;2023-11-19T08:53:59;0.20;;;0.10;;
82265;SDS011;71866;53.340;-6.308;2023-11-19T08:56:26;0.47;;;0.10;;
82265;SDS011;71866;53.340;-6.308;2023-11-19T08:58:53;0.30;;;0.20;;
82265;SDS011;71866;53.340;-6.308;2023-11-19T09:01:20;0.20;;;0.10;;
82265;SDS011;71866;53.340;-6.308;2023-11-19T09:03:48;0.43;;;0.10;;
82265;SDS011;71866;53.340;-6.308;2023-11-19T09:06:15;1.00;;;0.10;;
82265;SDS011;71866;53.340;-6.308;2023-11-19T09:08:46;1.08;;;0.10;;
82265;SDS011;71866;53.340;-6.308;2023-11-19T09:11:13;0.40;;;0.08;;
82265;SDS011;71866;53.340;-6.308;2023-11-19T09:13:41;0.43;;;0.05;;
82265;SDS011;71866;53.340;-6.308;2023-11-19T09:16:08;0.30;;;0.10;;
82265;SDS011;71866;53.340;-6.308;2023-11-19T09:18:37;0.90;;;0.17;;
82265;SDS011;71866;53.340;-6.308;2023-11-19T09:21:05;0.00;;;0.00;;
82265;SDS011;71866;53.340;-6.308;2023-11-19T09:23:31;0.40;;;0.20;;
82265;SDS011;71866;53.340;-6.308;2023-11-19T09:25:59;0.77;;;0.13;;
82265;SDS011;71866;53.340;-6.308;2023-11-19T09:28:27;0.80;;;0.20;;
82265;SDS011;71866;53.340;-6.308;2023-11-19T09:30:53;0.10;;;0.10;;
82265;SDS011;71866;53.340;-6.308;2023-11-19T09:33:21;0.35;;;0.03;;
82265;SDS011;71866;53.340;-6.308;2023-11-19T09:35:48;0.90;;;0.20;;
82265;SDS011;71866;53.340;-6.308;2023-11-19T09:38:15;0.40;;;0.20;;
82265;SDS011;71866;53.340;-6.308;2023-11-19T09:40:42;0.57;;;0.10;;
82265;SDS011;71866;53.340;-6.308;2023-11-19T09:43:10;0.82;;;0.20;;
82265;SDS011;71866;53.340;-6.308;2023-11-19T09:45:45;0.85;;;0.28;;
82265;SDS011;71866;53.340;-6.308;2023-11-19T09:48:19;0.10;;;0.08;;
82265;SDS011;71866;53.340;-6.308;2023-11-19T09:50:46;0.60;;;0.10;;
82265;SDS011;71866;53.340;-6.308;2023-11-19T09:53:16;0.35;;;0.20;;
82265;SDS011;71866;53.340;-6.308;2023-11-19T09:55:44;0.47;;;0.10;;
82265;SDS011;71866;53.340;-6.308;2023-11-19T09:58:12;0.35;;;0.10;;
82265;SDS011;71866;53.340;-6.308;2023-11-19T10:00:42;0.20;;;0.20;;
82265;SDS011;71866;53.340;-6.308;2023-11-19T10:03:09;2.50;;;0.55;;
82265;SDS011;71866;53.340;-6.308;2023-11-19T10:05:40;1.10;;;0.32;;
82265;SDS011;71866;53.340;-6.308;2023-11-19T10:08:07;1.65;;;0.20;;
82265;SDS011;71866;53.340;-6.308;2023-11-19T10:10:37;0.50;;;0.20;;
82265;SDS011;71866;53.340;-6.308;2023-11-19T10:13:04;0.50;;;0.20;;
82265;SDS011;71866;53.340;-6.308;2023-11-19T10:15:33;1.10;;;0.20;;
82265;SDS011;71866;53.340;-6.308;2023-11-19T10:18:03;1.98;;;0.40;;
82265;SDS011;71866;53.340;-6.308;2023-11-19T10:20:36;1.67;;;0.28;;
82265;SDS011;71866;53.340;-6.308;2023-11-19T10:23:04;1.88;;;0.20;;
82265;SDS011;71866;53.340;-6.308;2023-11-19T10:25:31;1.73;;;0.30;;
82265;SDS011;71866;53.340;-6.308;2023-11-19T10:28:00;0.43;;;0.10;;
82265;SDS011;71866;53.340;-6.308;2023-11-19T10:30:27;0.93;;;0.22;;
82265;SDS011;71866;53.340;-6.308;2023-11-19T10:35:57;0.50;;;0.20;;
82265;SDS011;71866;53.340;-6.308;2023-11-19T10:38:26;1.08;;;0.20;;
82265;SDS011;71866;53.340;-6.308;2023-11-19T10:40:54;1.30;;;0.32;;
82265;SDS011;71866;53.340;-6.308;2023-11-19T10:43:21;1.08;;;0.30;;
82265;SDS011;71866;53.340;-6.308;2023-11-19T10:45:49;0.55;;;0.30;;
82265;SDS011;71866;53.340;-6.308;2023-11-19T10:48:16;2.35;;;0.90;;
82265;SDS011;71866;53.340;-6.308;2023-11-19T10:50:44;0.80;;;0.50;;
82265;SDS011;71866;53.340;-6.308;2023-11-19T10:53:15;1.92;;;0.40;;
82265;SDS011;71866;53.340;-6.308;2023-11-19T10:55:47;0.90;;;0.13;;
82265;SDS011;71866;53.340;-6.308;2023-11-19T10:58:15;0.90;;;0.40;;
82265;SDS011;71866;53.340;-6.308;2023-11-19T11:00:44;0.70;;;0.32;;
82265;SDS011;71866;53.340;-6.308;2023-11-19T11:03:17;0.90;;;0.70;;
82265;SDS011;71866;53.340;-6.308;2023-11-19T11:05:47;2.08;;;0.50;;
82265;SDS011;71866;53.340;-6.308;2023-11-19T11:08:16;0.70;;;0.30;;
82265;SDS011;71866;53.340;-6.308;2023-11-19T11:13:24;1.02;;;0.50;;
82265;SDS011;71866;53.340;-6.308;2023-11-19T11:15:51;0.70;;;0.20;;
82265;SDS011;71866;53.340;-6.308;2023-11-19T11:18:18;0.95;;;0.30;;
82265;SDS011;71866;53.340;-6.308;2023-11-19T11:20:49;1.08;;;0.60;;
82265;SDS011;71866;53.340;-6.308;2023-11-19T11:31:42;0.70;;;0.20;;
82265;SDS011;71866;53.340;-6.308;2023-11-19T11:36:47;0.55;;;0.17;;
82265;SDS011;71866;53.340;-6.308;2023-11-19T11:39:22;0.98;;;0.20;;
82265;SDS011;71866;53.340;-6.308;2023-11-19T11:48:08;0.38;;;0.20;;
82265;SDS011;71866;53.340;-6.308;2023-11-19T11:50:46;0.68;;;0.17;;
82265;SDS011;71866;53.340;-6.308;2023-11-19T11:53:22;1.10;;;0.30;;
82265;SDS011;71866;53.340;-6.308;2023-11-19T11:58:18;1.25;;;0.35;;
82265;SDS011;71866;53.340;-6.308;2023-11-19T12:00:45;1.20;;;0.38;;
82265;SDS011;71866;53.340;-6.308;2023-11-19T12:03:13;0.88;;;0.20;;
82265;SDS011;71866;53.340;-6.308;2023-11-19T12:05:42;0.50;;;0.20;;
82265;SDS011;71866;53.340;-6.308;2023-11-19T12:08:13;2.20;;;0.50;;
82265;SDS011;71866;53.340;-6.308;2023-11-19T12:10:45;1.42;;;0.75;;
82265;SDS011;71866;53.340;-6.308;2023-11-19T12:13:16;1.75;;;0.30;;
82265;SDS011;71866;53.340;-6.308;2023-11-19T12:18:26;1.35;;;0.30;;
82265;SDS011;71866;53.340;-6.308;2023-11-19T12:20:55;1.35;;;0.30;;
82265;SDS011;71866;53.340;-6.308;2023-11-19T12:23:22;0.52;;;0.20;;
82265;SDS011;71866;53.340;-6.308;2023-11-19T12:25:50;0.82;;;0.10;;
82265;SDS011;71866;53.340;-6.308;2023-11-19T12:28:18;0.52;;;0.25;;
82265;SDS011;71866;53.340;-6.308;2023-11-19T12:30:45;3.50;;;0.32;;
82265;SDS011;71866;53.340;-6.308;2023-11-19T12:33:13;0.60;;;0.30;;
82265;SDS011;71866;53.340;-6.308;2023-11-19T12:35:43;0.52;;;0.20;;
82265;SDS011;71866;53.340;-6.308;2023-11-19T12:38:19;0.70;;;0.30;;
82265;SDS011;71866;53.340;-6.308;2023-11-19T12:41:08;2.65;;;0.30;;
82265;SDS011;71866;53.340;-6.308;2023-11-19T12:43:37;1.45;;;0.40;;
82265;SDS011;71866;53.340;-6.308;2023-11-19T12:46:18;0.45;;;0.20;;
82265;SDS011;71866;53.340;-6.308;2023-11-19T12:48:49;0.47;;;0.25;;
82265;SDS011;71866;53.340;-6.308;2023-11-19T12:51:18;0.80;;;0.30;;
82265;SDS011;71866;53.340;-6.308;2023-11-19T12:53:51;1.23;;;0.50;;
82265;SDS011;71866;53.340;-6.308;2023-11-19T12:58:49;1.45;;;0.30;;
82265;SDS011;71866;53.340;-6.308;2023-11-19T13:01:17;0.73;;;0.22;;
82265;SDS011;71866;53.340;-6.308;2023-11-19T13:03:46;1.67;;;0.50;;
82265;SDS011;71866;53.340;-6.308;2023-11-19T13:06:15;1.52;;;0.50;;
82265;SDS011;71866;53.340;-6.308;2023-11-19T13:08:46;4.40;;;0.80;;
82265;SDS011;71866;53.340;-6.308;2023-11-19T13:11:30;4.03;;;0.70;;
82265;SDS011;71866;53.340;-6.308;2023-11-19T13:13:59;3.42;;;0.70;;
82265;SDS011;71866;53.340;-6.308;2023-11-19T13:16:27;4.22;;;0.77;;
82265;SDS011;71866;53.340;-6.308;2023-11-19T13:18:54;5.55;;;1.10;;
82265;SDS011;71866;53.340;-6.308;2023-11-19T13:21:22;8.00;;;1.08;;
82265;SDS011;71866;53.340;-6.308;2023-11-19T13:23:50;3.58;;;0.82;;
82265;SDS011;71866;53.340;-6.308;2023-11-19T13:26:17;6.72;;;1.52;;
82265;SDS011;71866;53.340;-6.308;2023-11-19T13:28:45;8.40;;;2.28;;
82265;SDS011;71866;53.340;-6.308;2023-11-19T13:31:12;8.68;;;1.15;;
82265;SDS011;71866;53.340;-6.308;2023-11-19T13:33:38;10.85;;;1.80;;
82265;SDS011;71866;53.340;-6.308;2023-11-19T13:36:06;7.78;;;1.25;;
82265;SDS011;71866;53.340;-6.308;2023-11-19T13:38:42;7.57;;;1.38;;
82265;SDS011;71866;53.340;-6.308;2023-11-19T13:41:09;5.43;;;0.88;;
82265;SDS011;71866;53.340;-6.308;2023-11-19T13:43:36;6.78;;;1.02;;
82265;SDS011;71866;53.340;-6.308;2023-11-19T13:46:03;6.68;;;1.00;;
82265;SDS011;71866;53.340;-6.308;2023-11-19T13:48:33;6.85;;;1.27;;
82265;SDS011;71866;53.340;-6.308;2023-11-19T13:51:00;11.15;;;2.78;;
82265;SDS011;71866;53.340;-6.308;2023-11-19T13:53:27;10.48;;;2.63;;
82265;SDS011;71866;53.340;-6.308;2023-11-19T13:55:54;8.13;;;2.72;;
82265;SDS011;71866;53.340;-6.308;2023-11-19T13:58:21;6.18;;;1.63;;
82265;SDS011;71866;53.340;-6.308;2023-11-19T14:00:49;9.20;;;2.22;;
82265;SDS011;71866;53.340;-6.308;2023-11-19T14:03:15;4.20;;;1.50;;
82265;SDS011;71866;53.340;-6.308;2023-11-19T14:05:42;2.70;;;1.05;;
82265;SDS011;71866;53.340;-6.308;2023-11-19T14:08:09;10.73;;;2.47;;
82265;SDS011;71866;53.340;-6.308;2023-11-19T14:10:49;10.77;;;1.48;;
82265;SDS011;71866;53.340;-6.308;2023-11-19T14:13:16;7.03;;;1.15;;
82265;SDS011;71866;53.340;-6.308;2023-11-19T14:15:43;4.97;;;1.20;;
82265;SDS011;71866;53.340;-6.308;2023-11-19T14:18:14;7.55;;;1.20;;
82265;SDS011;71866;53.340;-6.308;2023-11-19T14:20:40;6.00;;;1.20;;
82265;SDS011;71866;53.340;-6.308;2023-11-19T14:23:08;11.07;;;1.60;;
82265;SDS011;71866;53.340;-6.308;2023-11-19T14:25:36;5.22;;;1.23;;
82265;SDS011;71866;53.340;-6.308;2023-11-19T14:28:02;4.18;;;1.20;;
82265;SDS011;71866;53.340;-6.308;2023-11-19T14:30:32;7.38;;;0.90;;
82265;SDS011;71866;53.340;-6.308;2023-11-19T14:32:59;6.60;;;1.30;;
82265;SDS011;71866;53.340;-6.308;2023-11-19T14:35:26;4.50;;;0.82;;
82265;SDS011;71866;53.340;-6.308;2023-11-19T14:37:54;4.47;;;0.80;;
82265;SDS011;71866;53.340;-6.308;2023-11-19T14:40:21;7.25;;;1.60;;
82265;SDS011;71866;53.340;-6.308;2023-11-19T14:43:08;7.50;;;1.42;;
82265;SDS011;71866;53.340;-6.308;2023-11-19T14:45:35;4.30;;;0.73;;
82265;SDS011;71866;53.340;-6.308;2023-11-19T14:48:13;4.72;;;1.30;;
82265;SDS011;71866;53.340;-6.308;2023-11-19T14:50:40;6.03;;;1.15;;
82265;SDS011;71866;53.340;-6.308;2023-11-19T14:53:07;5.32;;;1.20;;
82265;SDS011;71866;53.340;-6.308;2023-11-19T14:55:34;12.25;;;1.95;;
82265;SDS011;71866;53.340;-6.308;2023-11-19T14:58:03;9.45;;;2.45;;
82265;SDS011;71866;53.340;-6.308;2023-11-19T15:00:36;9.90;;;2.42;;
82265;SDS011;71866;53.340;-6.308;2023-11-19T15:03:04;5.93;;;1.38;;
82265;SDS011;71866;53.340;-6.308;2023-11-19T15:05:31;5.07;;;1.80;;
82265;SDS011;71866;53.340;-6.308;2023-11-19T15:07:58;10.18;;;3.88;;
82265;SDS011;71866;53.340;-6.308;2023-11-19T15:10:25;9.27;;;2.67;;
82265;SDS011;71866;53.340;-6.308;2023-11-19T15:12:52;8.20;;;2.03;;